createdAt,value
2017-08-27T00:01:46.898Z,100860.74
2017-08-27T00:04:13.360Z,100862.56
2017-08-27T00:06:39.741Z,100858.61
2017-08-27T00:09:06.374Z,100851.69
2017-08-27T00:11:32.742Z,100850.50
2017-08-27T00:13:59.113Z,100849.92
2017-08-27T00:16:25.529Z,100860.25
2017-08-27T00:18:51.899Z,100852.33
2017-08-27T00:21:18.429Z,100855.52
2017-08-27T00:23:44.846Z,100851.77
2017-08-27T00:26:11.211Z,100853.09
2017-08-27T00:28:37.575Z,100849.27
2017-08-27T00:31:03.923Z,100855.66
2017-08-27T00:33:30.310Z,100858.72
2017-08-27T00:35:56.699Z,100860.97
2017-08-27T00:38:23.072Z,100866.34
2017-08-27T00:40:49.477Z,100858.56
2017-08-27T00:43:15.904Z,100851.35
2017-08-27T00:45:42.296Z,100856.81
2017-08-27T00:48:08.715Z,100866.30
2017-08-27T00:50:35.129Z,100870.86
2017-08-27T00:53:01.562Z,100876.12
2017-08-27T00:55:28.021Z,100876.27
2017-08-27T00:57:54.435Z,100881.29
2017-08-27T01:00:20.830Z,100881.36
2017-08-27T01:02:47.256Z,100879.45
2017-08-27T01:05:13.710Z,100875.37
2017-08-27T01:07:40.197Z,100885.50
2017-08-27T01:10:06.575Z,100888.39
2017-08-27T01:12:32.934Z,100877.80
2017-08-27T01:14:59.387Z,100887.61
2017-08-27T01:17:25.771Z,100886.91
2017-08-27T01:19:52.183Z,100882.05
2017-08-27T01:22:18.660Z,100892.92
2017-08-27T01:24:45.083Z,100892.80
2017-08-27T01:27:11.517Z,100894.41
2017-08-27T01:29:37.889Z,100888.70
2017-08-27T01:32:04.287Z,100887.09
2017-08-27T01:34:30.696Z,100886.12
2017-08-27T01:36:57.080Z,100888.19
2017-08-27T01:39:23.434Z,100888.98
2017-08-27T01:41:49.808Z,100882.53
2017-08-27T01:44:16.208Z,100879.62
2017-08-27T01:46:42.577Z,100884.59
2017-08-27T01:49:08.963Z,100886.88
2017-08-27T01:51:37.194Z,100884.78
2017-08-27T01:54:03.686Z,100883.98
2017-08-27T01:56:30.045Z,100888.41
2017-08-27T01:58:56.388Z,100888.23
2017-08-27T02:01:23.043Z,100894.35
2017-08-27T02:03:49.424Z,100893.23
2017-08-27T02:06:16.632Z,100895.58
2017-08-27T02:08:43.796Z,100899.87
2017-08-27T02:11:11.138Z,100891.84
2017-08-27T02:13:37.650Z,100889.87
2017-08-27T02:16:04.010Z,100893.16
2017-08-27T02:18:30.356Z,100896.84
2017-08-27T02:20:56.719Z,100890.02
2017-08-27T02:23:23.105Z,100893.52
2017-08-27T02:25:49.503Z,100899.84
2017-08-27T02:28:15.921Z,100895.66
2017-08-27T02:30:42.292Z,100898.06
2017-08-27T02:33:08.659Z,100895.97
2017-08-27T02:35:35.029Z,100904.56
2017-08-27T02:38:01.408Z,100910.26
2017-08-27T02:40:27.809Z,100911.05
2017-08-27T02:42:54.164Z,100908.47
2017-08-27T02:45:20.529Z,100908.89
2017-08-27T02:47:46.930Z,100911.91
2017-08-27T02:50:13.298Z,100910.23
2017-08-27T02:52:39.675Z,100907.41
2017-08-27T02:55:06.053Z,100908.63
2017-08-27T02:57:32.833Z,100906.20
2017-08-27T02:59:59.251Z,100908.37
2017-08-27T03:02:25.641Z,100909.64
2017-08-27T03:04:52.046Z,100909.08
2017-08-27T03:07:18.439Z,100910.57
2017-08-27T03:09:44.860Z,100913.54
2017-08-27T03:12:11.222Z,100907.01
2017-08-27T03:14:37.615Z,100906.20
2017-08-27T03:17:03.999Z,100912.02
2017-08-27T03:19:30.377Z,100912.79
2017-08-27T03:21:56.762Z,100917.99
2017-08-27T03:24:23.157Z,100917.03
2017-08-27T03:26:49.568Z,100923.77
2017-08-27T03:29:15.962Z,100926.45
2017-08-27T03:31:42.334Z,100925.95
2017-08-27T03:34:08.729Z,100924.65
2017-08-27T03:36:35.952Z,100921.77
2017-08-27T03:39:02.382Z,100923.40
2017-08-27T03:41:28.734Z,100927.88
2017-08-27T03:43:55.090Z,100926.19
2017-08-27T03:46:21.467Z,100928.83
2017-08-27T03:48:47.833Z,100928.87
2017-08-27T03:51:14.241Z,100932.05
2017-08-27T03:53:40.632Z,100933.91
2017-08-27T03:56:07.027Z,100941.28
2017-08-27T03:58:33.437Z,100937.22
2017-08-27T04:00:59.855Z,100946.27
2017-08-27T04:03:26.232Z,100944.79
2017-08-27T04:05:52.593Z,100937.83
2017-08-27T04:08:18.996Z,100935.30
2017-08-27T04:10:45.382Z,100945.00
2017-08-27T04:13:11.748Z,100952.19
2017-08-27T04:15:38.130Z,100947.00
2017-08-27T04:18:04.516Z,100949.81
2017-08-27T04:20:30.897Z,100961.87
2017-08-27T04:22:57.276Z,100958.87
2017-08-27T04:25:23.701Z,100960.07
2017-08-27T04:27:50.070Z,100959.39
2017-08-27T04:30:16.472Z,100969.47
2017-08-27T04:32:42.906Z,100970.76
2017-08-27T04:35:09.313Z,100973.09
2017-08-27T04:37:35.696Z,100978.09
2017-08-27T04:40:02.040Z,100977.88
2017-08-27T04:42:28.422Z,100978.77
2017-08-27T04:44:54.798Z,100986.73
2017-08-27T04:47:21.223Z,100983.42
2017-08-27T04:49:47.590Z,100988.66
2017-08-27T04:52:13.999Z,100992.84
2017-08-27T04:54:40.431Z,100990.78
2017-08-27T04:57:06.774Z,100995.51
2017-08-27T04:59:33.126Z,101000.47
2017-08-27T05:01:59.509Z,101007.94
2017-08-27T05:04:25.892Z,101006.28
2017-08-27T05:06:52.242Z,101009.40
2017-08-27T05:09:18.732Z,101005.27
2017-08-27T05:11:45.089Z,101005.45
2017-08-27T05:14:11.455Z,101008.70
2017-08-27T05:16:37.779Z,101006.98
2017-08-27T05:19:04.144Z,101002.07
2017-08-27T05:21:30.572Z,100999.73
2017-08-27T05:23:56.925Z,101004.03
2017-08-27T05:26:23.330Z,101009.19
2017-08-27T05:28:49.719Z,101006.72
2017-08-27T05:31:16.107Z,101010.20
2017-08-27T05:33:42.512Z,101010.91
2017-08-27T05:36:08.896Z,101019.63
2017-08-27T05:38:35.279Z,101012.82
2017-08-27T05:41:01.657Z,101016.49
2017-08-27T05:43:28.036Z,101019.79
2017-08-27T05:45:54.386Z,101021.30
2017-08-27T05:48:20.758Z,101027.77
2017-08-27T05:50:47.194Z,101024.39
2017-08-27T05:53:13.599Z,101031.88
2017-08-27T05:55:40.003Z,101033.39
2017-08-27T05:58:06.355Z,101034.64
2017-08-27T06:00:32.738Z,101039.69
2017-08-27T06:02:59.079Z,101035.88
2017-08-27T06:05:25.464Z,101038.52
2017-08-27T06:07:51.838Z,101035.00
2017-08-27T06:10:18.246Z,101037.22
2017-08-27T06:12:44.584Z,101032.34
2017-08-27T06:15:10.957Z,101025.83
2017-08-27T06:17:37.324Z,101036.74
2017-08-27T06:20:03.687Z,101038.33
2017-08-27T06:22:30.096Z,101037.50
2017-08-27T06:24:56.463Z,101040.25
2017-08-27T06:27:22.848Z,101034.13
2017-08-27T06:29:49.198Z,101036.68
2017-08-27T06:32:15.552Z,101036.36
2017-08-27T06:34:41.892Z,101031.31
2017-08-27T06:37:08.259Z,101035.67
2017-08-27T06:39:34.634Z,101036.44
2017-08-27T06:42:01.021Z,101035.05
2017-08-27T06:44:27.418Z,101038.78
2017-08-27T06:46:53.800Z,101045.34
2017-08-27T06:49:20.161Z,101041.73
2017-08-27T06:51:46.556Z,101046.77
2017-08-27T06:54:12.935Z,101042.31
2017-08-27T06:56:39.296Z,101050.34
2017-08-27T06:59:05.668Z,101052.09
2017-08-27T07:01:32.087Z,101048.91
2017-08-27T07:03:58.445Z,101053.47
2017-08-27T07:06:24.842Z,101058.30
2017-08-27T07:08:51.231Z,101054.67
2017-08-27T07:11:17.616Z,101058.45
2017-08-27T07:13:44.002Z,101063.60
2017-08-27T07:16:10.414Z,101065.13
2017-08-27T07:18:36.816Z,101072.02
2017-08-27T07:21:03.225Z,101072.86
2017-08-27T07:23:29.606Z,101086.59
2017-08-27T07:25:55.987Z,101078.59
2017-08-27T07:28:22.380Z,101077.63
2017-08-27T07:30:48.731Z,101078.40
2017-08-27T07:33:15.101Z,101086.73
2017-08-27T07:35:41.502Z,101090.28
2017-08-27T07:38:07.909Z,101093.17
2017-08-27T07:40:34.290Z,101097.20
2017-08-27T07:43:00.681Z,101100.09
2017-08-27T07:45:27.061Z,101110.58
2017-08-27T07:47:53.520Z,101109.72
2017-08-27T07:50:19.894Z,101113.23
2017-08-27T07:52:46.283Z,101110.94
2017-08-27T07:55:12.647Z,101116.95
2017-08-27T07:57:39.050Z,101112.21
2017-08-27T08:00:05.438Z,101115.47
2017-08-27T08:02:31.840Z,101115.73
2017-08-27T08:04:58.237Z,101121.59
2017-08-27T08:07:24.703Z,101116.41
2017-08-27T08:09:51.130Z,101123.76
2017-08-27T08:12:17.537Z,101120.21
2017-08-27T08:14:43.899Z,101110.91
2017-08-27T08:17:10.274Z,101119.08
2017-08-27T08:19:36.669Z,101116.25
2017-08-27T08:22:03.079Z,101116.33
2017-08-27T08:24:29.428Z,101114.98
2017-08-27T08:26:55.810Z,101116.95
2017-08-27T08:29:22.185Z,101114.81
2017-08-27T08:31:48.559Z,101111.73
2017-08-27T08:34:14.926Z,101118.89
2017-08-27T08:36:41.280Z,101114.19
2017-08-27T08:39:07.656Z,101118.73
2017-08-27T08:41:34.058Z,101122.91
2017-08-27T08:44:00.455Z,101116.95
2017-08-27T08:46:26.826Z,101119.11
2017-08-27T08:48:53.195Z,101130.95
2017-08-27T08:51:19.582Z,101130.41
2017-08-27T08:53:45.949Z,101132.21
2017-08-27T08:56:12.340Z,101139.53
2017-08-27T08:58:38.704Z,101136.66
2017-08-27T09:01:05.114Z,101134.83
2017-08-27T09:03:31.512Z,101128.09
2017-08-27T09:05:57.893Z,101135.87
2017-08-27T09:08:24.270Z,101129.13
2017-08-27T09:10:50.683Z,101133.14
2017-08-27T09:13:17.067Z,101137.68
2017-08-27T09:15:43.493Z,101135.44
2017-08-27T09:18:09.834Z,101138.81
2017-08-27T09:20:36.212Z,101135.98
2017-08-27T09:23:02.617Z,101132.73
2017-08-27T09:25:28.985Z,101138.64
2017-08-27T09:27:55.357Z,101133.81
2017-08-27T09:30:21.783Z,101127.44
2017-08-27T09:32:48.187Z,101133.08
2017-08-27T09:35:14.579Z,101134.48
2017-08-27T09:37:40.956Z,101130.10
2017-08-27T09:40:07.343Z,101135.44
2017-08-27T09:42:33.736Z,101135.28
2017-08-27T09:45:00.131Z,101140.55
2017-08-27T09:47:26.522Z,101133.58
2017-08-27T09:49:52.917Z,101137.95
2017-08-27T09:52:19.278Z,101136.73
2017-08-27T09:54:45.639Z,101138.16
2017-08-27T09:57:12.020Z,101135.67
2017-08-27T09:59:38.404Z,101138.66
2017-08-27T10:02:04.776Z,101146.28
2017-08-27T10:04:31.141Z,101142.69
2017-08-27T10:06:57.499Z,101145.39
2017-08-27T10:09:23.913Z,101146.55
2017-08-27T10:11:50.289Z,101151.78
2017-08-27T10:14:16.675Z,101149.50
2017-08-27T10:16:43.059Z,101147.64
2017-08-27T10:19:09.456Z,101149.88
2017-08-27T10:21:35.795Z,101144.12
2017-08-27T10:24:02.186Z,101147.41
2017-08-27T10:26:28.583Z,101151.48
2017-08-27T10:28:54.957Z,101154.80
2017-08-27T10:31:21.291Z,101151.49
2017-08-27T10:33:47.701Z,101149.98
2017-08-27T10:36:14.103Z,101143.41
2017-08-27T10:38:40.473Z,101134.94
2017-08-27T10:41:06.845Z,101137.55
2017-08-27T10:43:33.182Z,101148.15
2017-08-27T10:45:59.556Z,101138.07
2017-08-27T10:48:25.907Z,101133.08
2017-08-27T10:50:52.246Z,101139.02
2017-08-27T10:53:18.645Z,101140.10
2017-08-27T10:55:45.022Z,101131.59
2017-08-27T10:58:11.387Z,101134.81
2017-08-27T11:00:37.755Z,101129.41
2017-08-27T11:03:04.128Z,101128.41
2017-08-27T11:05:30.471Z,101130.48
2017-08-27T11:07:57.008Z,101124.08
2017-08-27T11:10:23.372Z,101122.81
2017-08-27T11:12:49.765Z,101117.62
2017-08-27T11:15:16.149Z,101117.48
2017-08-27T11:17:42.540Z,101115.26
2017-08-27T11:20:08.911Z,101119.27
2017-08-27T11:22:35.293Z,101122.41
2017-08-27T11:25:01.649Z,101120.75
2017-08-27T11:27:27.993Z,101122.12
2017-08-27T11:29:54.409Z,101115.89
2017-08-27T11:32:20.770Z,101119.71
2017-08-27T11:34:47.138Z,101112.61
2017-08-27T11:37:13.522Z,101117.90
2017-08-27T11:39:39.919Z,101110.05
2017-08-27T11:42:06.690Z,101110.84
2017-08-27T11:44:33.130Z,101110.08
2017-08-27T11:47:00.305Z,101112.36
2017-08-27T11:49:26.683Z,101108.98
2017-08-27T11:51:53.072Z,101106.06
2017-08-27T11:54:19.435Z,101104.64
2017-08-27T11:56:45.809Z,101104.70
2017-08-27T11:59:12.190Z,101098.32
2017-08-27T12:01:38.594Z,101100.27
2017-08-27T12:04:04.947Z,101101.51
2017-08-27T12:06:31.314Z,101096.72
2017-08-27T12:08:57.665Z,101095.84
2017-08-27T12:11:24.048Z,101098.83
2017-08-27T12:13:50.427Z,101096.19
2017-08-27T12:16:16.801Z,101093.30
2017-08-27T12:18:43.225Z,101097.80
2017-08-27T12:21:09.603Z,101102.73
2017-08-27T12:23:35.972Z,101093.84
2017-08-27T12:26:02.360Z,101100.50
2017-08-27T12:28:28.737Z,101094.95
2017-08-27T12:30:55.105Z,101095.88
2017-08-27T12:33:21.507Z,101103.11
2017-08-27T12:35:47.906Z,101107.23
2017-08-27T12:38:14.330Z,101097.48
2017-08-27T12:40:40.700Z,101096.08
2017-08-27T12:43:07.068Z,101097.05
2017-08-27T12:45:33.444Z,101096.15
2017-08-27T12:47:59.832Z,101096.44
2017-08-27T12:50:26.293Z,101099.88
2017-08-27T12:52:52.705Z,101095.56
2017-08-27T12:55:19.083Z,101088.60
2017-08-27T12:57:45.520Z,101083.22
2017-08-27T13:00:11.949Z,101083.31
2017-08-27T13:02:39.726Z,101081.26
2017-08-27T13:05:06.149Z,101079.64
2017-08-27T13:07:32.648Z,101091.01
2017-08-27T13:09:59.139Z,101081.28
2017-08-27T13:12:25.691Z,101080.91
2017-08-27T13:14:52.080Z,101082.44
2017-08-27T13:17:18.537Z,101083.88
2017-08-27T13:19:45.008Z,101082.12
2017-08-27T13:22:11.406Z,101090.82
2017-08-27T13:24:37.785Z,101082.52
2017-08-27T13:27:04.180Z,101086.36
2017-08-27T13:29:30.617Z,101085.14
2017-08-27T13:31:56.985Z,101088.42
2017-08-27T13:34:23.358Z,101094.16
2017-08-27T13:36:49.766Z,101096.04
2017-08-27T13:39:16.183Z,101092.75
2017-08-27T13:41:42.583Z,101088.40
2017-08-27T13:44:09.002Z,101084.65
2017-08-27T13:46:35.416Z,101083.53
2017-08-27T13:49:01.811Z,101085.70
2017-08-27T13:51:28.167Z,101080.59
2017-08-27T13:53:54.590Z,101082.95
2017-08-27T13:56:20.973Z,101078.61
2017-08-27T13:58:47.665Z,101085.09
2017-08-27T14:01:14.124Z,101081.19
2017-08-27T14:03:41.001Z,101079.62
2017-08-27T14:06:07.378Z,101074.58
2017-08-27T14:08:33.790Z,101077.42
2017-08-27T14:11:00.209Z,101076.63
2017-08-27T14:13:26.652Z,101076.41
2017-08-27T14:15:53.044Z,101076.98
2017-08-27T14:18:19.437Z,101073.91
2017-08-27T14:20:45.866Z,101075.55
2017-08-27T14:23:12.337Z,101078.11
2017-08-27T14:25:39.358Z,101074.59
2017-08-27T14:28:05.851Z,101078.89
2017-08-27T14:30:32.252Z,101080.48
2017-08-27T14:32:58.656Z,101080.38
2017-08-27T14:35:25.057Z,101080.67
2017-08-27T14:37:51.463Z,101077.92
2017-08-27T14:40:17.850Z,101076.33
2017-08-27T14:42:44.258Z,101074.72
2017-08-27T14:45:10.618Z,101065.91
2017-08-27T14:47:37.007Z,101066.08
2017-08-27T14:50:03.410Z,101061.47
2017-08-27T14:52:29.790Z,101064.94
2017-08-27T14:54:56.222Z,101064.09
2017-08-27T14:57:22.620Z,101062.13
2017-08-27T14:59:49.081Z,101063.75
2017-08-27T15:02:15.492Z,101058.27
2017-08-27T15:04:41.875Z,101059.22
2017-08-27T15:07:08.311Z,101061.65
2017-08-27T15:09:34.709Z,101068.06
2017-08-27T15:12:01.102Z,101062.88
2017-08-27T15:14:27.500Z,101074.31
2017-08-27T15:16:53.895Z,101069.78
2017-08-27T15:19:20.301Z,101073.66
2017-08-27T15:21:46.694Z,101071.54
2017-08-27T15:24:13.107Z,101073.01
2017-08-27T15:26:39.512Z,101075.61
2017-08-27T15:29:05.924Z,101068.64
2017-08-27T15:31:32.326Z,101072.70
2017-08-27T15:33:58.699Z,101071.12
2017-08-27T15:36:25.088Z,101072.13
2017-08-27T15:38:51.497Z,101069.50
2017-08-27T15:41:17.880Z,101077.03
2017-08-27T15:43:44.271Z,101069.89
2017-08-27T15:46:10.700Z,101069.17
2017-08-27T15:48:37.128Z,101065.44
2017-08-27T15:51:03.536Z,101063.22
2017-08-27T15:53:29.933Z,101066.05
2017-08-27T15:55:56.306Z,101065.20
2017-08-27T15:58:22.727Z,101062.47
2017-08-27T16:00:49.109Z,101069.95
2017-08-27T16:03:15.510Z,101063.33
2017-08-27T16:05:41.925Z,101070.13
2017-08-27T16:08:08.411Z,101066.64
2017-08-27T16:10:34.788Z,101062.19
2017-08-27T16:13:01.205Z,101063.25
2017-08-27T16:15:27.642Z,101066.53
2017-08-27T16:17:54.023Z,101065.53
2017-08-27T16:20:20.409Z,101063.65
2017-08-27T16:22:46.830Z,101064.35
2017-08-27T16:25:13.251Z,101064.95
2017-08-27T16:27:39.662Z,101068.13
2017-08-27T16:30:06.066Z,101062.06
2017-08-27T16:32:32.485Z,101062.91
2017-08-27T16:34:58.909Z,101062.22
2017-08-27T16:37:25.329Z,101055.53
2017-08-27T16:39:51.762Z,101056.21
2017-08-27T16:42:18.520Z,101052.91
2017-08-27T16:44:45.032Z,101056.27
2017-08-27T16:47:23.616Z,101057.73
2017-08-27T16:49:50.067Z,101052.88
2017-08-27T16:52:16.610Z,101053.64
2017-08-27T16:54:43.051Z,101053.48
2017-08-27T16:57:09.452Z,101055.08
2017-08-27T16:59:35.864Z,101051.52
2017-08-27T17:02:02.324Z,101051.88
2017-08-27T17:04:28.731Z,101056.22
2017-08-27T17:06:55.164Z,101048.46
2017-08-27T17:09:21.605Z,101052.12
2017-08-27T17:11:48.101Z,101053.71
2017-08-27T17:14:14.545Z,101051.75
2017-08-27T17:16:41.013Z,101050.50
2017-08-27T17:19:07.448Z,101048.62
2017-08-27T17:21:33.935Z,101047.06
2017-08-27T17:24:00.394Z,101039.78
2017-08-27T17:26:26.832Z,101042.30
2017-08-27T17:28:53.271Z,101040.77
2017-08-27T17:31:19.702Z,101041.07
2017-08-27T17:33:46.859Z,101044.80
2017-08-27T17:36:16.305Z,101043.90
2017-08-27T17:38:43.621Z,101049.38
2017-08-27T17:41:10.082Z,101054.02
2017-08-27T17:43:36.529Z,101061.00
2017-08-27T17:46:02.991Z,101061.64
2017-08-27T17:48:29.472Z,101065.86
2017-08-27T17:50:55.965Z,101062.86
2017-08-27T17:53:22.706Z,101062.93
2017-08-27T17:55:49.164Z,101066.12
2017-08-27T17:58:15.634Z,101073.73
2017-08-27T18:00:42.118Z,101074.45
2017-08-27T18:03:08.585Z,101082.81
2017-08-27T18:05:34.975Z,101082.34
2017-08-27T18:08:01.402Z,101078.47
2017-08-27T18:10:27.851Z,101081.67
2017-08-27T18:12:54.294Z,101087.24
2017-08-27T18:15:20.793Z,101088.75
2017-08-27T18:17:47.250Z,101088.84
2017-08-27T18:20:13.658Z,101082.89
2017-08-27T18:22:40.090Z,101088.46
2017-08-27T18:25:06.518Z,101086.62
2017-08-27T18:27:32.929Z,101085.60
2017-08-27T18:29:59.342Z,101089.35
2017-08-27T18:32:25.827Z,101091.45
2017-08-27T18:34:52.313Z,101092.95
2017-08-27T18:37:18.708Z,101091.52
2017-08-27T18:39:45.134Z,101094.53
2017-08-27T18:42:11.553Z,101095.18
2017-08-27T18:44:37.928Z,101099.43
2017-08-27T18:47:04.283Z,101099.18
2017-08-27T18:49:30.697Z,101102.52
2017-08-27T18:51:57.049Z,101102.95
2017-08-27T18:54:23.453Z,101106.08
2017-08-27T18:56:49.938Z,101101.70
2017-08-27T18:59:16.394Z,101113.61
2017-08-27T19:01:42.868Z,101122.30
2017-08-27T19:04:09.766Z,101127.55
2017-08-27T19:06:36.259Z,101128.48
2017-08-27T19:09:03.260Z,101135.13
2017-08-27T19:11:29.778Z,101138.59
2017-08-27T19:13:56.390Z,101136.96
2017-08-27T19:16:22.838Z,101141.63
2017-08-27T19:18:50.710Z,101141.16
2017-08-27T19:21:17.225Z,101144.39
2017-08-27T19:23:44.273Z,101144.06
2017-08-27T19:26:11.678Z,101145.26
2017-08-27T19:28:38.240Z,101147.80
2017-08-27T19:31:04.931Z,101151.82
2017-08-27T19:33:31.365Z,101145.98
2017-08-27T19:35:57.806Z,101153.55
2017-08-27T19:38:24.582Z,101157.58
2017-08-27T19:40:51.085Z,101152.98
2017-08-27T19:43:17.522Z,101155.92
2017-08-27T19:45:43.996Z,101155.97
2017-08-27T19:48:11.757Z,101164.16
2017-08-27T19:50:38.627Z,101163.17
2017-08-27T19:53:05.055Z,101159.92
2017-08-27T19:55:31.591Z,101159.97
2017-08-27T19:57:58.080Z,101170.41
2017-08-27T20:00:24.534Z,101158.59
2017-08-27T20:02:50.978Z,101171.05
2017-08-27T20:05:17.374Z,101171.22
2017-08-27T20:07:43.781Z,101169.86
2017-08-27T20:10:10.271Z,101178.41
2017-08-27T20:12:36.688Z,101182.80
2017-08-27T20:15:03.140Z,101181.75
2017-08-27T20:17:29.593Z,101187.84
2017-08-27T20:19:55.984Z,101190.48
2017-08-27T20:22:22.394Z,101187.38
2017-08-27T20:24:49.148Z,101183.89
2017-08-27T20:27:15.937Z,101183.47
2017-08-27T20:29:42.319Z,101189.48
2017-08-27T20:32:08.745Z,101182.69
2017-08-27T20:34:35.913Z,101191.45
2017-08-27T20:37:02.392Z,101194.50
2017-08-27T20:39:28.846Z,101186.34
2017-08-27T20:41:55.265Z,101189.63
2017-08-27T20:44:21.734Z,101197.05
2017-08-27T20:46:48.175Z,101196.83
2017-08-27T20:49:14.575Z,101198.63
2017-08-27T20:51:40.991Z,101204.91
2017-08-27T20:54:07.424Z,101211.42
2017-08-27T20:56:33.791Z,101209.09
2017-08-27T20:59:00.311Z,101196.33
2017-08-27T21:01:26.717Z,101196.69
2017-08-27T21:03:53.130Z,101196.32
2017-08-27T21:06:19.551Z,101193.14
2017-08-27T21:08:45.985Z,101192.94
2017-08-27T21:11:12.380Z,101190.53
2017-08-27T21:13:38.773Z,101191.30
2017-08-27T21:16:05.156Z,101196.67
2017-08-27T21:18:31.555Z,101186.72
2017-08-27T21:20:57.985Z,101186.80
2017-08-27T21:23:24.440Z,101187.77
2017-08-27T21:25:50.907Z,101188.55
2017-08-27T21:28:17.286Z,101181.16
2017-08-27T21:30:44.106Z,101180.10
2017-08-27T21:33:10.557Z,101178.17
2017-08-27T21:35:36.959Z,101181.66
2017-08-27T21:38:03.591Z,101186.88
2017-08-27T21:40:29.997Z,101183.14
2017-08-27T21:42:56.382Z,101194.80
2017-08-27T21:45:22.755Z,101199.03
2017-08-27T21:47:49.759Z,101195.75
2017-08-27T21:50:16.198Z,101193.58
2017-08-27T21:52:42.679Z,101195.73
2017-08-27T21:55:09.122Z,101193.55
2017-08-27T21:57:35.508Z,101194.75
2017-08-27T22:00:01.906Z,101192.13
2017-08-27T22:02:28.258Z,101197.56
2017-08-27T22:04:54.630Z,101202.81
2017-08-27T22:07:21.015Z,101199.48
2017-08-27T22:09:47.440Z,101203.22
2017-08-27T22:12:13.852Z,101209.60
2017-08-27T22:14:40.250Z,101200.11
2017-08-27T22:17:06.622Z,101201.47
2017-08-27T22:19:33.009Z,101206.16
2017-08-27T22:21:59.434Z,101205.78
2017-08-27T22:24:25.826Z,101210.73
2017-08-27T22:26:52.244Z,101217.64
2017-08-27T22:29:18.637Z,101211.51
2017-08-27T22:31:45.007Z,101212.98
2017-08-27T22:34:11.432Z,101208.48
2017-08-27T22:36:37.832Z,101203.00
2017-08-27T22:39:04.297Z,101203.67
2017-08-27T22:41:30.718Z,101203.77
2017-08-27T22:43:57.126Z,101202.12
2017-08-27T22:46:23.504Z,101204.58
2017-08-27T22:48:49.931Z,101203.82
2017-08-27T22:51:16.304Z,101204.79
2017-08-27T22:53:42.653Z,101200.03
2017-08-27T22:56:09.087Z,101201.59
2017-08-27T22:58:35.486Z,101206.30
2017-08-27T23:01:01.901Z,101207.05
2017-08-27T23:03:28.363Z,101206.59
2017-08-27T23:05:54.737Z,101203.33
2017-08-27T23:08:21.128Z,101209.36
2017-08-27T23:10:47.507Z,101210.86
2017-08-27T23:13:13.875Z,101210.44
2017-08-27T23:15:40.248Z,101205.63
2017-08-27T23:18:06.675Z,101212.39
2017-08-27T23:20:33.073Z,101206.49
2017-08-27T23:22:59.491Z,101210.42
2017-08-27T23:25:25.857Z,101213.17
2017-08-27T23:27:52.289Z,101205.06
2017-08-27T23:30:18.698Z,101202.60
2017-08-27T23:32:45.072Z,101206.87
2017-08-27T23:35:11.472Z,101206.55
2017-08-27T23:37:37.857Z,101211.94
2017-08-27T23:40:04.287Z,101210.59
2017-08-27T23:42:30.658Z,101201.23
2017-08-27T23:44:57.052Z,101207.70
2017-08-27T23:47:23.461Z,101202.86
2017-08-27T23:49:51.284Z,101193.88
2017-08-27T23:52:18.617Z,101201.50
2017-08-27T23:54:45.039Z,101203.75
2017-08-27T23:57:13.860Z,101208.92
2017-08-27T23:59:40.388Z,101200.98
